createdAt,value
2019-05-30T00:01:07.750Z,80.2
2019-05-30T00:06:04.624Z,81.8
2019-05-30T00:11:01.190Z,81.3
2019-05-30T00:15:58.724Z,82.7
2019-05-30T00:20:54.722Z,82.1
2019-05-30T00:25:50.835Z,80.4
2019-05-30T00:30:47.394Z,81.1
2019-05-30T00:35:44.086Z,83.5
2019-05-30T00:40:40.348Z,82.5
2019-05-30T00:45:37.158Z,82.8
2019-05-30T00:50:33.676Z,84.5
2019-05-30T00:55:30.631Z,84.4
2019-05-30T01:00:41.866Z,84.2
2019-05-30T01:05:23.257Z,83.6
2019-05-30T01:10:19.670Z,82
2019-05-30T01:15:16.299Z,83.3
2019-05-30T01:20:12.872Z,84.6
2019-05-30T01:25:09.651Z,84.2
2019-05-30T01:30:06.123Z,85.1
2019-05-30T01:35:03.708Z,85.6
2019-05-30T01:39:59.723Z,82
2019-05-30T01:44:56.109Z,82
2019-05-30T01:49:52.332Z,84
2019-05-30T01:54:49.000Z,84.5
2019-05-30T01:59:45.849Z,85.5
2019-05-30T02:04:42.602Z,86.4
2019-05-30T02:09:39.468Z,87
2019-05-30T02:14:36.157Z,88
2019-05-30T02:19:32.530Z,86.4
2019-05-30T02:24:29.217Z,85.5
2019-05-30T02:29:25.905Z,85.3
2019-05-30T02:34:22.673Z,87.2
2019-05-30T02:39:19.455Z,86.9
2019-05-30T02:44:16.081Z,87.5
2019-05-30T02:49:13.639Z,87.9
2019-05-30T02:54:11.082Z,88.2
2019-05-30T02:59:08.561Z,87.4
2019-05-30T03:04:04.007Z,86.8
2019-05-30T03:09:01.674Z,86.6
2019-05-30T03:13:56.717Z,87
2019-05-30T03:18:53.453Z,84.4
2019-05-30T03:23:50.536Z,76.1
2019-05-30T03:28:47.654Z,70
2019-05-30T03:33:44.977Z,63.6
2019-05-30T03:38:42.523Z,64.9
2019-05-30T03:43:39.932Z,64.8
2019-05-30T03:48:37.087Z,59.2
2019-05-30T03:53:34.562Z,55.7
2019-05-30T03:58:32.429Z,55.4
2019-05-30T04:03:30.110Z,50.9
2019-05-30T04:08:27.621Z,57.7
2019-05-30T04:13:24.870Z,49.9
2019-05-30T04:18:22.441Z,48
2019-05-30T04:23:19.768Z,44.3
2019-05-30T04:28:18.644Z,44.1
2019-05-30T04:33:25.573Z,41.7
2019-05-30T04:38:14.624Z,43.3
2019-05-30T04:43:11.311Z,41.1
2019-05-30T04:48:09.780Z,38.8
2019-05-30T04:53:06.899Z,41.9
2019-05-30T04:58:04.365Z,39
2019-05-30T05:03:01.929Z,35.7
2019-05-30T05:07:59.602Z,36.5
2019-05-30T05:12:57.474Z,39.2
2019-05-30T05:17:54.552Z,37.4
2019-05-30T05:22:51.853Z,36.8
2019-05-30T05:27:49.367Z,41.7
2019-05-30T05:32:46.179Z,49.5
2019-05-30T05:37:42.133Z,48.4
2019-05-30T05:42:38.206Z,53.3
2019-05-30T05:47:33.829Z,42.4
2019-05-30T05:52:31.121Z,41.2
2019-05-30T05:57:29.182Z,36.5
2019-05-30T06:02:27.345Z,34.2
2019-05-30T06:07:25.510Z,34.4
2019-05-30T06:12:23.901Z,34.2
2019-05-30T06:17:21.609Z,41.4
2019-05-30T06:22:17.894Z,41.3
2019-05-30T06:27:14.469Z,34.7
2019-05-30T06:32:12.905Z,33.4
2019-05-30T06:37:12.114Z,33.2
2019-05-30T06:42:09.521Z,33.3
2019-05-30T06:47:08.423Z,33.9
2019-05-30T06:52:05.757Z,32.9
2019-05-30T06:57:03.151Z,31.2
2019-05-30T07:02:01.651Z,29.2
2019-05-30T07:06:59.567Z,36.5
2019-05-30T07:11:56.764Z,27
2019-05-30T07:16:54.560Z,41.3
2019-05-30T07:21:50.550Z,41.9
2019-05-30T07:26:47.564Z,33.2
2019-05-30T07:31:45.650Z,32.1
2019-05-30T07:36:44.749Z,31.1
2019-05-30T07:41:43.161Z,27.7
2019-05-30T07:46:41.432Z,33.2
2019-05-30T07:51:38.995Z,32.9
2019-05-30T07:56:35.182Z,36.7
2019-05-30T08:01:30.859Z,32.5
2019-05-30T08:06:29.504Z,34.6
2019-05-30T08:11:25.286Z,35.9
2019-05-30T08:21:18.237Z,45.4
2019-05-30T08:26:14.054Z,43.6
2019-05-30T08:31:10.001Z,43.9
2019-05-30T08:36:07.119Z,30.9
2019-05-30T08:41:05.903Z,29.5
2019-05-30T08:46:06.209Z,29
2019-05-30T08:51:04.695Z,29.2
2019-05-30T08:56:01.740Z,30.9
2019-05-30T09:00:59.185Z,32.2
2019-05-30T09:06:03.166Z,31.4
2019-05-30T09:10:52.348Z,35.8
2019-05-30T09:15:49.289Z,28.3
2019-05-30T09:20:47.841Z,32.7
2019-05-30T09:25:46.739Z,36.9
2019-05-30T09:30:40.857Z,40.1
2019-05-30T09:35:35.109Z,40.9
2019-05-30T09:40:31.777Z,29.9
2019-05-30T09:45:31.093Z,25.4
2019-05-30T09:50:30.683Z,28.5
2019-05-30T09:55:29.326Z,25.5
2019-05-30T10:00:26.771Z,26.1
2019-05-30T10:05:25.033Z,32.2
2019-05-30T10:10:19.125Z,35
2019-05-30T10:15:14.485Z,34.9
2019-05-30T10:20:11.011Z,28.2
2019-05-30T10:25:08.675Z,33.7
2019-05-30T10:30:05.201Z,26.4
2019-05-30T10:35:03.360Z,25.9
2019-05-30T10:40:01.866Z,22.8
2019-05-30T10:44:59.912Z,26.9
2019-05-30T10:49:57.714Z,27.1
2019-05-30T10:54:53.501Z,38.2
2019-05-30T10:59:48.599Z,36.7
2019-05-30T11:04:42.756Z,35.9
2019-05-30T11:09:38.869Z,35.2
2019-05-30T11:14:35.739Z,33.5
2019-05-30T11:19:32.981Z,34.9
2019-05-30T11:24:29.578Z,31.2
2019-05-30T11:29:26.433Z,25.5
2019-05-30T11:34:24.894Z,27.2
2019-05-30T11:39:23.174Z,25.8
2019-05-30T11:44:21.456Z,23.6
2019-05-30T11:49:18.840Z,25.4
2019-05-30T11:54:16.423Z,28.6
2019-05-30T11:59:13.978Z,24.7
2019-05-30T12:04:11.494Z,23
2019-05-30T12:09:07.868Z,34
2019-05-30T12:14:02.696Z,27.3
2019-05-30T12:18:59.748Z,25.6
2019-05-30T12:23:58.079Z,25.8
2019-05-30T12:28:54.313Z,31.4
2019-05-30T12:33:52.162Z,28.1
2019-05-30T12:38:48.389Z,29.6
2019-05-30T12:43:45.235Z,28.2
2019-05-30T12:48:42.369Z,26.8
2019-05-30T12:53:39.426Z,28.6
2019-05-30T12:58:36.549Z,28.5
2019-05-30T13:03:33.715Z,30.4
2019-05-30T13:08:30.509Z,28.7
2019-05-30T13:13:27.236Z,30.2
2019-05-30T13:18:24.221Z,26.6
2019-05-30T13:23:21.249Z,24.2
2019-05-30T13:28:18.594Z,22
2019-05-30T13:33:15.763Z,22.1
2019-05-30T13:38:25.619Z,22.5
2019-05-30T13:43:09.854Z,24.5
2019-05-30T13:48:06.806Z,21.9
2019-05-30T13:53:05.220Z,22.4
2019-05-30T13:58:01.519Z,23.9
2019-05-30T14:02:57.539Z,23.4
2019-05-30T14:07:54.135Z,22.3
2019-05-30T14:12:50.648Z,23.7
2019-05-30T14:17:47.325Z,21.7
2019-05-30T14:22:43.965Z,21.2
2019-05-30T14:27:40.514Z,24.9
2019-05-30T14:32:36.398Z,28.5
2019-05-30T14:37:32.651Z,32.2
2019-05-30T14:42:28.881Z,34.7
2019-05-30T14:47:25.023Z,31.9
2019-05-30T14:52:21.474Z,31.1
2019-05-30T14:57:18.274Z,35.6
2019-05-30T15:02:14.288Z,36.7
2019-05-30T15:07:11.372Z,39.6
2019-05-30T15:12:06.973Z,40.7
2019-05-30T15:17:02.968Z,43.1
2019-05-30T15:21:59.303Z,42.4
2019-05-30T15:26:57.038Z,43.2
2019-05-30T15:31:53.616Z,43
2019-05-30T15:36:50.168Z,46.4
2019-05-30T15:41:47.182Z,47.7
2019-05-30T15:46:43.758Z,44.3
2019-05-30T15:51:40.522Z,48.4
2019-05-30T15:56:37.180Z,46.2
2019-05-30T16:01:33.637Z,48.9
2019-05-30T16:06:30.098Z,50
2019-05-30T16:11:26.863Z,52.7
2019-05-30T16:16:38.762Z,55
2019-05-30T16:21:20.265Z,56.8
2019-05-30T16:26:16.128Z,52.8
2019-05-30T16:31:13.745Z,54.9
2019-05-30T16:36:09.546Z,57.8
2019-05-30T16:41:06.239Z,59.2
2019-05-30T16:46:02.979Z,59.1
2019-05-30T16:50:59.708Z,62.1
2019-05-30T16:55:56.288Z,60.7
2019-05-30T17:00:52.974Z,62
2019-05-30T17:05:49.617Z,62.8
2019-05-30T17:10:46.425Z,61.9
2019-05-30T17:15:43.282Z,65
2019-05-30T17:20:39.900Z,66
2019-05-30T17:25:36.670Z,66.1
2019-05-30T17:30:33.278Z,65.3
2019-05-30T17:35:29.958Z,65.6
2019-05-30T17:40:41.015Z,67.2
2019-05-30T17:45:23.163Z,68.3
2019-05-30T17:50:19.850Z,67.2
2019-05-30T17:55:16.269Z,69.2
2019-05-30T18:00:12.230Z,68.9
2019-05-30T18:05:08.934Z,71
2019-05-30T18:10:05.511Z,69.7
2019-05-30T18:15:02.189Z,70.8
2019-05-30T18:19:58.765Z,70.3
2019-05-30T18:24:55.295Z,69.9
2019-05-30T18:29:51.983Z,70.8
2019-05-30T18:34:48.343Z,72
2019-05-30T18:39:45.047Z,72.6
2019-05-30T18:44:41.760Z,73.8
2019-05-30T18:49:37.941Z,73
2019-05-30T18:54:35.029Z,72.6
2019-05-30T18:59:33.153Z,73.7
2019-05-30T19:04:29.578Z,74.1
2019-05-30T19:09:25.175Z,73.5
2019-05-30T19:14:21.903Z,74.4
2019-05-30T19:19:18.531Z,74.6
2019-05-30T19:24:15.813Z,75.3
2019-05-30T19:29:12.468Z,75.2
2019-05-30T19:34:09.249Z,74.7
2019-05-30T19:39:05.878Z,75
2019-05-30T19:44:02.666Z,75.2
2019-05-30T19:48:59.663Z,74.2
2019-05-30T19:53:56.533Z,75.2
2019-05-30T20:03:50.694Z,74.1
2019-05-30T20:08:55.295Z,75.3
2019-05-30T20:13:44.573Z,74.6
2019-05-30T20:18:41.802Z,76.5
2019-05-30T20:23:49.210Z,76.2
2019-05-30T20:28:35.111Z,74.5
2019-05-30T20:33:31.917Z,76.5
2019-05-30T20:38:28.552Z,77.4
2019-05-30T20:43:25.343Z,77.6
2019-05-30T20:48:22.148Z,77
2019-05-30T20:53:20.464Z,77.8
2019-05-30T20:58:15.927Z,75.3
2019-05-30T21:03:12.566Z,74.5
2019-05-30T21:08:09.526Z,74
2019-05-30T21:13:06.473Z,73.5
2019-05-30T21:18:03.594Z,74.6
2019-05-30T21:23:00.406Z,72.7
2019-05-30T21:27:57.312Z,73.6
2019-05-30T21:32:54.425Z,74.9
2019-05-30T21:37:50.786Z,72.8
2019-05-30T21:43:01.162Z,74.7
2019-05-30T21:47:44.725Z,77.3
2019-05-30T21:52:41.455Z,77.6
2019-05-30T21:57:36.968Z,78.6
2019-05-30T22:02:33.464Z,78.5
2019-05-30T22:07:29.965Z,78.9
2019-05-30T22:12:26.812Z,81.1
2019-05-30T22:17:23.566Z,81.3
2019-05-30T22:22:20.283Z,82.1
2019-05-30T22:27:16.994Z,83
2019-05-30T22:32:13.923Z,82.8
2019-05-30T22:37:10.624Z,83.3
2019-05-30T22:42:07.429Z,84.4
2019-05-30T22:47:04.119Z,84.5
2019-05-30T22:52:00.923Z,84.7
2019-05-30T22:57:01.128Z,85
2019-05-30T23:01:54.692Z,85.3
2019-05-30T23:06:52.406Z,86
2019-05-30T23:11:48.140Z,86.1
2019-05-30T23:16:46.108Z,86.4
2019-05-30T23:21:41.692Z,85.9
2019-05-30T23:26:38.515Z,85.3
2019-05-30T23:31:35.746Z,85.5
2019-05-30T23:36:32.521Z,85.7
2019-05-30T23:41:29.208Z,86.1
2019-05-30T23:46:25.936Z,85.7
2019-05-30T23:51:22.779Z,85.4
2019-05-30T23:56:19.745Z,85.4
